sensor_id;sensor_type;location;lat;lon;timestamp;pressure;altitude;pressure_sealevel;temperature;humidity
48778;BME280;34578;0.000;0.000;2023-03-25T00:00:33;96217.28;;;17.99;55.53
48778;BME280;34578;0.000;0.000;2023-03-25T00:05:33;96205.44;;;17.99;55.39
48778;BME280;34578;0.000;0.000;2023-03-25T00:10:33;96227.44;;;17.99;55.37
48778;BME280;34578;0.000;0.000;2023-03-25T00:15:34;96189.44;;;17.99;57.28
48778;BME280;34578;0.000;0.000;2023-03-25T00:20:34;96212.22;;;17.99;55.62
48778;BME280;34578;0.000;0.000;2023-03-25T00:25:35;96202.91;;;18.01;56.69
48778;BME280;34578;0.000;0.000;2023-03-25T00:30:37;96189.38;;;18.05;59.65
48778;BME280;34578;0.000;0.000;2023-03-25T00:35:39;96174.13;;;18.09;59.70
48778;BME280;34578;0.000;0.000;2023-03-25T00:40:43;96161.50;;;18.05;59.17
48778;BME280;34578;0.000;0.000;2023-03-25T00:45:45;96162.41;;;18.02;56.76
48778;BME280;34578;0.000;0.000;2023-03-25T00:50:46;96149.69;;;18.04;57.52
48778;BME280;34578;0.000;0.000;2023-03-25T00:55:47;96153.09;;;18.03;58.20
48778;BME280;34578;0.000;0.000;2023-03-25T01:00:48;96148.88;;;18.03;58.44
48778;BME280;34578;0.000;0.000;2023-03-25T01:05:49;96166.56;;;18.05;59.52
48778;BME280;34578;0.000;0.000;2023-03-25T01:10:52;96185.16;;;18.07;59.09
48778;BME280;34578;0.000;0.000;2023-03-25T01:15:53;96173.31;;;18.06;59.54
48778;BME280;34578;0.000;0.000;2023-03-25T01:20:53;96174.16;;;18.05;58.78
48778;BME280;34578;0.000;0.000;2023-03-25T01:25:54;96172.50;;;18.04;58.55
48778;BME280;34578;0.000;0.000;2023-03-25T01:31:03;96172.50;;;18.05;58.94
48778;BME280;34578;0.000;0.000;2023-03-25T01:36:04;96196.13;;;18.07;59.51
48778;BME280;34578;0.000;0.000;2023-03-25T01:41:09;96190.19;;;18.11;59.68
48778;BME280;34578;0.000;0.000;2023-03-25T01:46:14;96180.06;;;18.10;59.58
48778;BME280;34578;0.000;0.000;2023-03-25T01:51:19;96175.03;;;18.04;58.83
48778;BME280;34578;0.000;0.000;2023-03-25T01:56:26;96188.53;;;18.04;58.63
48778;BME280;34578;0.000;0.000;2023-03-25T02:01:30;96166.59;;;18.02;57.56
48778;BME280;34578;0.000;0.000;2023-03-25T02:06:50;96164.06;;;18.00;56.45
48778;BME280;34578;0.000;0.000;2023-03-25T02:11:52;96148.06;;;18.00;56.34
48778;BME280;34578;0.000;0.000;2023-03-25T02:17:05;96213.06;;;18.01;55.91
48778;BME280;34578;0.000;0.000;2023-03-25T02:27:29;96188.59;;;17.94;55.64
48778;BME280;34578;0.000;0.000;2023-03-25T02:38:01;96213.09;;;17.98;55.17
48778;BME280;34578;0.000;0.000;2023-03-25T02:43:13;96222.31;;;18.02;59.32
48778;BME280;34578;0.000;0.000;2023-03-25T02:48:28;96224.84;;;18.08;59.62
48778;BME280;34578;0.000;0.000;2023-03-25T02:53:33;96229.06;;;18.03;58.25
48778;BME280;34578;0.000;0.000;2023-03-25T02:58:35;96229.09;;;18.00;56.06
48778;BME280;34578;0.000;0.000;2023-03-25T03:03:37;96205.47;;;17.98;55.48
48778;BME280;34578;0.000;0.000;2023-03-25T03:19:57;96246.84;;;17.98;57.66
48778;BME280;34578;0.000;0.000;2023-03-25T03:30:15;96245.16;;;17.99;58.37
48778;BME280;34578;0.000;0.000;2023-03-25T03:35:23;96253.56;;;17.99;58.28
48778;BME280;34578;0.000;0.000;2023-03-25T03:40:27;96244.28;;;17.98;57.90
48778;BME280;34578;0.000;0.000;2023-03-25T03:45:35;96251.91;;;18.00;58.53
48778;BME280;34578;0.000;0.000;2023-03-25T03:50:41;96257.75;;;18.05;59.24
48778;BME280;34578;0.000;0.000;2023-03-25T03:55:49;96261.97;;;18.07;59.09
48778;BME280;34578;0.000;0.000;2023-03-25T04:01:00;96255.25;;;18.00;58.52
48778;BME280;34578;0.000;0.000;2023-03-25T04:06:26;96246.84;;;18.00;58.00
48778;BME280;34578;0.000;0.000;2023-03-25T04:11:50;96240.09;;;17.96;57.35
48778;BME280;34578;0.000;0.000;2023-03-25T04:16:53;96257.00;;;17.95;56.34
48778;BME280;34578;0.000;0.000;2023-03-25T04:21:54;96262.88;;;17.96;56.46
48778;BME280;34578;0.000;0.000;2023-03-25T04:26:54;96265.41;;;17.96;56.45
48778;BME280;34578;0.000;0.000;2023-03-25T04:31:57;96254.47;;;17.94;56.53
48778;BME280;34578;0.000;0.000;2023-03-25T04:36:57;96247.69;;;17.96;56.90
48778;BME280;34578;0.000;0.000;2023-03-25T04:41:58;96264.59;;;17.95;55.99
48778;BME280;34578;0.000;0.000;2023-03-25T04:47:02;96261.19;;;17.95;55.30
48778;BME280;34578;0.000;0.000;2023-03-25T04:52:03;96269.63;;;18.00;58.92
48778;BME280;34578;0.000;0.000;2023-03-25T04:57:03;96272.97;;;18.02;58.82
48778;BME280;34578;0.000;0.000;2023-03-25T05:02:04;96286.50;;;18.01;58.66
48778;BME280;34578;0.000;0.000;2023-03-25T05:07:05;96295.84;;;17.94;57.35
48778;BME280;34578;0.000;0.000;2023-03-25T05:12:06;96276.38;;;17.93;55.63
48778;BME280;34578;0.000;0.000;2023-03-25T05:17:10;96287.38;;;17.92;55.34
48778;BME280;34578;0.000;0.000;2023-03-25T05:22:10;96305.09;;;17.92;55.23
48778;BME280;34578;0.000;0.000;2023-03-25T05:27:12;96293.31;;;17.90;55.31
48778;BME280;34578;0.000;0.000;2023-03-25T05:32:12;96297.53;;;17.91;55.05
48778;BME280;34578;0.000;0.000;2023-03-25T05:37:16;96305.97;;;17.91;54.91
48778;BME280;34578;0.000;0.000;2023-03-25T05:42:17;96295.00;;;17.91;55.04
48778;BME280;34578;0.000;0.000;2023-03-25T05:47:23;96284.00;;;17.90;54.68
48778;BME280;34578;0.000;0.000;2023-03-25T05:52:23;96275.56;;;17.91;54.86
48778;BME280;34578;0.000;0.000;2023-03-25T05:57:24;96289.91;;;17.95;58.66
48778;BME280;34578;0.000;0.000;2023-03-25T06:02:25;96269.63;;;18.00;58.74
48778;BME280;34578;0.000;0.000;2023-03-25T06:07:25;96265.38;;;18.00;58.22
48778;BME280;34578;0.000;0.000;2023-03-25T06:12:25;96283.16;;;17.93;56.39
48778;BME280;34578;0.000;0.000;2023-03-25T06:17:26;96279.81;;;17.91;55.46
48778;BME280;34578;0.000;0.000;2023-03-25T06:22:27;96276.41;;;17.92;56.00
48778;BME280;34578;0.000;0.000;2023-03-25T06:27:27;96279.81;;;17.91;56.75
48778;BME280;34578;0.000;0.000;2023-03-25T06:32:27;96256.16;;;17.92;57.59
48778;BME280;34578;0.000;0.000;2023-03-25T06:37:28;96273.88;;;17.92;57.57
48778;BME280;34578;0.000;0.000;2023-03-25T06:42:29;96276.41;;;17.92;56.93
48778;BME280;34578;0.000;0.000;2023-03-25T06:47:51;96263.75;;;17.92;57.72
48778;BME280;34578;0.000;0.000;2023-03-25T06:52:51;96246.03;;;17.92;55.91
48778;BME280;34578;0.000;0.000;2023-03-25T06:57:55;96250.28;;;17.90;56.11
48778;BME280;34578;0.000;0.000;2023-03-25T07:02:56;96249.34;;;17.97;58.11
48778;BME280;34578;0.000;0.000;2023-03-25T07:07:57;96251.88;;;18.03;58.42
48778;BME280;34578;0.000;0.000;2023-03-25T07:12:58;96262.88;;;17.99;57.66
48778;BME280;34578;0.000;0.000;2023-03-25T07:17:58;96258.66;;;17.93;57.87
48778;BME280;34578;0.000;0.000;2023-03-25T07:22:58;96247.69;;;17.96;55.25
48778;BME280;34578;0.000;0.000;2023-03-25T07:27:59;96246.84;;;17.95;56.94
48778;BME280;34578;0.000;0.000;2023-03-25T07:33:00;96254.44;;;17.97;57.52
48778;BME280;34578;0.000;0.000;2023-03-25T07:38:00;96233.38;;;17.92;55.91
48778;BME280;34578;0.000;0.000;2023-03-25T07:43:00;96232.53;;;17.90;58.84
48778;BME280;34578;0.000;0.000;2023-03-25T07:48:10;96261.19;;;17.96;58.55
48778;BME280;34578;0.000;0.000;2023-03-25T07:53:13;96277.22;;;17.97;59.29
48778;BME280;34578;0.000;0.000;2023-03-25T07:58:14;96254.44;;;17.97;59.04
48778;BME280;34578;0.000;0.000;2023-03-25T08:03:15;96246.00;;;17.98;59.16
48778;BME280;34578;0.000;0.000;2023-03-25T08:08:16;96259.47;;;18.03;58.13
48778;BME280;34578;0.000;0.000;2023-03-25T08:13:16;96263.69;;;18.04;59.15
48778;BME280;34578;0.000;0.000;2023-03-25T08:18:17;96233.34;;;17.98;58.76
48778;BME280;34578;0.000;0.000;2023-03-25T08:23:18;96256.09;;;18.04;56.04
48778;BME280;34578;0.000;0.000;2023-03-25T08:28:20;96251.88;;;18.04;55.61
48778;BME280;34578;0.000;0.000;2023-03-25T08:33:25;96276.34;;;18.04;58.07
48778;BME280;34578;0.000;0.000;2023-03-25T08:38:27;96279.72;;;18.04;57.61
48778;BME280;34578;0.000;0.000;2023-03-25T08:43:30;96293.22;;;18.05;57.51
48778;BME280;34578;0.000;0.000;2023-03-25T08:48:31;96298.28;;;18.05;57.43
48778;BME280;34578;0.000;0.000;2023-03-25T08:53:31;96291.53;;;18.04;57.52
48778;BME280;34578;0.000;0.000;2023-03-25T08:58:32;96298.28;;;18.05;57.84
48778;BME280;34578;0.000;0.000;2023-03-25T09:03:32;96294.91;;;18.06;56.80
48778;BME280;34578;0.000;0.000;2023-03-25T09:08:33;96293.22;;;18.05;57.52
48778;BME280;34578;0.000;0.000;2023-03-25T09:13:34;96291.53;;;18.04;58.13
48778;BME280;34578;0.000;0.000;2023-03-25T09:18:34;96286.47;;;18.04;58.40
48778;BME280;34578;0.000;0.000;2023-03-25T09:23:35;96288.16;;;18.06;57.69
48778;BME280;34578;0.000;0.000;2023-03-25T09:28:36;96299.13;;;18.08;58.03
48778;BME280;34578;0.000;0.000;2023-03-25T09:33:36;96278.84;;;18.10;56.85
48778;BME280;34578;0.000;0.000;2023-03-25T09:38:37;96284.78;;;18.09;58.08
48778;BME280;34578;0.000;0.000;2023-03-25T09:49:11;96323.59;;;18.11;55.76
48778;BME280;34578;0.000;0.000;2023-03-25T09:54:35;96315.16;;;18.09;57.92
48778;BME280;34578;0.000;0.000;2023-03-25T09:59:44;96325.31;;;18.09;57.56
48778;BME280;34578;0.000;0.000;2023-03-25T10:04:58;96332.06;;;18.07;58.27
48778;BME280;34578;0.000;0.000;2023-03-25T10:10:15;96348.09;;;18.07;57.94
48778;BME280;34578;0.000;0.000;2023-03-25T10:20:54;96348.97;;;18.08;58.45
48778;BME280;34578;0.000;0.000;2023-03-25T10:26:05;96351.47;;;18.12;57.07
48778;BME280;34578;0.000;0.000;2023-03-25T10:31:16;96353.16;;;18.10;58.18
48778;BME280;34578;0.000;0.000;2023-03-25T10:36:18;96369.22;;;18.08;58.46
48778;BME280;34578;0.000;0.000;2023-03-25T10:41:30;96348.97;;;18.08;59.34
48778;BME280;34578;0.000;0.000;2023-03-25T10:46:41;96363.31;;;18.07;57.82
48778;BME280;34578;0.000;0.000;2023-03-25T10:51:49;96357.38;;;18.10;56.57
48778;BME280;34578;0.000;0.000;2023-03-25T10:56:59;96343.00;;;18.19;57.36
48778;BME280;34578;0.000;0.000;2023-03-25T11:02:23;96347.22;;;18.13;57.90
48778;BME280;34578;0.000;0.000;2023-03-25T11:07:30;96347.25;;;18.10;58.53
48778;BME280;34578;0.000;0.000;2023-03-25T11:12:31;96349.78;;;18.10;57.23
48778;BME280;34578;0.000;0.000;2023-03-25T11:17:32;96348.09;;;18.10;57.75
48778;BME280;34578;0.000;0.000;2023-03-25T11:22:35;96362.44;;;18.10;59.16
48778;BME280;34578;0.000;0.000;2023-03-25T11:27:44;96346.41;;;18.09;59.88
48778;BME280;34578;0.000;0.000;2023-03-25T11:32:57;96337.94;;;18.13;57.44
48778;BME280;34578;0.000;0.000;2023-03-25T11:38:00;96330.34;;;18.12;57.19
48778;BME280;34578;0.000;0.000;2023-03-25T11:43:04;96336.25;;;18.14;56.89
48778;BME280;34578;0.000;0.000;2023-03-25T11:48:11;96332.91;;;18.10;58.40
48778;BME280;34578;0.000;0.000;2023-03-25T11:53:15;96352.31;;;18.08;58.63
48778;BME280;34578;0.000;0.000;2023-03-25T11:58:18;96342.19;;;18.10;58.64
48778;BME280;34578;0.000;0.000;2023-03-25T12:03:24;96341.34;;;18.11;58.18
48778;BME280;34578;0.000;0.000;2023-03-25T12:08:39;96338.78;;;18.11;56.78
48778;BME280;34578;0.000;0.000;2023-03-25T12:13:52;96353.97;;;18.14;57.63
48778;BME280;34578;0.000;0.000;2023-03-25T12:24:32;96342.16;;;18.13;59.11
48778;BME280;34578;0.000;0.000;2023-03-25T12:29:39;96367.50;;;18.16;59.37
48778;BME280;34578;0.000;0.000;2023-03-25T12:34:59;96325.28;;;18.15;59.07
48778;BME280;34578;0.000;0.000;2023-03-25T12:56:36;96321.94;;;18.07;59.31
48778;BME280;34578;0.000;0.000;2023-03-25T13:01:52;96312.63;;;18.06;59.33
48778;BME280;34578;0.000;0.000;2023-03-25T13:12:14;96309.28;;;18.05;58.96
48778;BME280;34578;0.000;0.000;2023-03-25T13:17:27;96286.50;;;17.99;58.63
48778;BME280;34578;0.000;0.000;2023-03-25T13:22:36;96298.28;;;18.05;56.37
48778;BME280;34578;0.000;0.000;2023-03-25T13:27:39;96334.59;;;18.04;59.13
48778;BME280;34578;0.000;0.000;2023-03-25T13:32:43;96321.06;;;18.11;59.51
48778;BME280;34578;0.000;0.000;2023-03-25T13:37:52;96314.28;;;18.16;58.87
48778;BME280;34578;0.000;0.000;2023-03-25T13:43:05;96303.34;;;18.05;56.91
48778;BME280;34578;0.000;0.000;2023-03-25T13:48:30;96321.13;;;18.03;57.58
48778;BME280;34578;0.000;0.000;2023-03-25T13:59:02;96340.53;;;18.01;57.31
48778;BME280;34578;0.000;0.000;2023-03-25T14:14:38;96346.47;;;17.99;55.78
48778;BME280;34578;0.000;0.000;2023-03-25T14:19:46;96344.75;;;18.01;58.33
48778;BME280;34578;0.000;0.000;2023-03-25T14:24:48;96335.47;;;18.00;57.73
48778;BME280;34578;0.000;0.000;2023-03-25T14:46:34;96343.88;;;18.05;58.96
48778;BME280;34578;0.000;0.000;2023-03-25T14:56:32;96328.72;;;18.00;58.86
48778;BME280;34578;0.000;0.000;2023-03-25T15:01:35;96330.38;;;18.03;59.05
48778;BME280;34578;0.000;0.000;2023-03-25T15:06:37;96328.72;;;18.02;59.07
48778;BME280;34578;0.000;0.000;2023-03-25T15:11:40;96310.16;;;18.00;57.68
48778;BME280;34578;0.000;0.000;2023-03-25T15:27:00;96299.16;;;18.01;56.89
48778;BME280;34578;0.000;0.000;2023-03-25T15:48:02;96272.97;;;18.08;58.89
48778;BME280;34578;0.000;0.000;2023-03-25T15:59:00;96262.84;;;18.02;56.10
48778;BME280;34578;0.000;0.000;2023-03-25T16:04:31;96270.44;;;18.00;55.36
48778;BME280;34578;0.000;0.000;2023-03-25T16:09:40;96273.00;;;17.99;55.73
48778;BME280;34578;0.000;0.000;2023-03-25T16:14:45;96273.88;;;17.98;54.95
48778;BME280;34578;0.000;0.000;2023-03-25T16:19:51;96263.75;;;17.92;55.07
48778;BME280;34578;0.000;0.000;2023-03-25T16:24:55;96278.94;;;17.95;57.88
48778;BME280;34578;0.000;0.000;2023-03-25T16:29:56;96286.53;;;17.95;58.13
48778;BME280;34578;0.000;0.000;2023-03-25T16:34:56;96295.81;;;17.97;56.11
48778;BME280;34578;0.000;0.000;2023-03-25T16:39:57;96290.75;;;17.99;55.03
48778;BME280;34578;0.000;0.000;2023-03-25T16:44:57;96290.72;;;18.00;58.22
48778;BME280;34578;0.000;0.000;2023-03-25T16:49:59;96290.72;;;18.03;58.49
48778;BME280;34578;0.000;0.000;2023-03-25T17:00:15;96288.22;;;17.99;57.76
48778;BME280;34578;0.000;0.000;2023-03-25T17:05:22;96284.81;;;18.00;57.66
48778;BME280;34578;0.000;0.000;2023-03-25T17:10:27;96289.88;;;18.00;57.56
48778;BME280;34578;0.000;0.000;2023-03-25T17:15:30;96280.63;;;17.99;58.04
48778;BME280;34578;0.000;0.000;2023-03-25T17:20:37;96275.53;;;17.97;57.36
48778;BME280;34578;0.000;0.000;2023-03-25T17:25:59;96286.53;;;17.98;57.62
48778;BME280;34578;0.000;0.000;2023-03-25T17:36:34;96288.22;;;17.99;58.21
48778;BME280;34578;0.000;0.000;2023-03-25T17:41:37;96298.34;;;17.99;57.96
48778;BME280;34578;0.000;0.000;2023-03-25T17:46:38;96299.16;;;17.99;58.08
48778;BME280;34578;0.000;0.000;2023-03-25T17:51:39;96303.38;;;18.02;58.52
48778;BME280;34578;0.000;0.000;2023-03-25T17:56:42;96302.53;;;18.04;58.35
48778;BME280;34578;0.000;0.000;2023-03-25T18:01:43;96303.38;;;18.02;56.57
48778;BME280;34578;0.000;0.000;2023-03-25T18:06:45;96300.03;;;18.00;55.61
48778;BME280;34578;0.000;0.000;2023-03-25T18:11:48;96316.91;;;18.01;56.24
48778;BME280;34578;0.000;0.000;2023-03-25T18:16:50;96317.75;;;17.98;57.90
48778;BME280;34578;0.000;0.000;2023-03-25T18:21:51;96316.94;;;17.92;55.88
48778;BME280;34578;0.000;0.000;2023-03-25T18:26:54;96305.09;;;17.94;58.27
48778;BME280;34578;0.000;0.000;2023-03-25T18:31:55;96321.13;;;17.96;58.33
48778;BME280;34578;0.000;0.000;2023-03-25T18:36:56;96318.63;;;17.94;58.15
48778;BME280;34578;0.000;0.000;2023-03-25T18:41:57;96325.38;;;17.95;58.49
48778;BME280;34578;0.000;0.000;2023-03-25T18:46:57;96317.78;;;17.94;56.09
48778;BME280;34578;0.000;0.000;2023-03-25T18:51:57;96310.19;;;17.91;56.10
48778;BME280;34578;0.000;0.000;2023-03-25T18:56:58;96325.34;;;18.00;59.09
48778;BME280;34578;0.000;0.000;2023-03-25T19:01:58;96313.53;;;17.99;59.52
48778;BME280;34578;0.000;0.000;2023-03-25T19:06:59;96322.78;;;18.01;59.14
48778;BME280;34578;0.000;0.000;2023-03-25T19:12:00;96323.66;;;18.02;59.19
48778;BME280;34578;0.000;0.000;2023-03-25T19:17:00;96333.78;;;18.02;59.56
48778;BME280;34578;0.000;0.000;2023-03-25T19:22:00;96332.91;;;18.03;59.82
48778;BME280;34578;0.000;0.000;2023-03-25T19:27:01;96327.91;;;17.94;59.57
48778;BME280;34578;0.000;0.000;2023-03-25T19:32:01;96343.91;;;18.02;59.84
48778;BME280;34578;0.000;0.000;2023-03-25T19:37:02;96337.16;;;18.01;59.82
48778;BME280;34578;0.000;0.000;2023-03-25T19:42:04;96345.63;;;18.00;59.56
48778;BME280;34578;0.000;0.000;2023-03-25T19:47:04;96338.00;;;17.98;59.66
48778;BME280;34578;0.000;0.000;2023-03-25T19:52:05;96349.00;;;17.99;56.29
48778;BME280;34578;0.000;0.000;2023-03-25T19:57:06;96312.69;;;17.94;58.57
48778;BME280;34578;0.000;0.000;2023-03-25T20:02:11;96321.09;;;18.02;59.59
48778;BME280;34578;0.000;0.000;2023-03-25T20:07:14;96314.38;;;18.02;59.73
48778;BME280;34578;0.000;0.000;2023-03-25T20:12:15;96327.00;;;18.04;59.02
48778;BME280;34578;0.000;0.000;2023-03-25T20:17:15;96300.03;;;18.00;59.04
48778;BME280;34578;0.000;0.000;2023-03-25T20:22:15;96326.19;;;17.99;58.71
48778;BME280;34578;0.000;0.000;2023-03-25T20:27:16;96322.00;;;17.98;58.93
48778;BME280;34578;0.000;0.000;2023-03-25T20:32:17;96332.13;;;17.98;58.95
48778;BME280;34578;0.000;0.000;2023-03-25T20:37:17;96332.94;;;17.97;58.96
48778;BME280;34578;0.000;0.000;2023-03-25T20:42:18;96338.03;;;17.95;58.36
48778;BME280;34578;0.000;0.000;2023-03-25T20:47:18;96322.81;;;17.97;58.97
48778;BME280;34578;0.000;0.000;2023-03-25T20:52:19;96325.38;;;17.94;58.83
48778;BME280;34578;0.000;0.000;2023-03-25T20:57:20;96315.25;;;17.95;58.91
48778;BME280;34578;0.000;0.000;2023-03-25T21:02:23;96320.28;;;17.97;59.09
48778;BME280;34578;0.000;0.000;2023-03-25T21:07:27;96318.59;;;17.99;59.02
48778;BME280;34578;0.000;0.000;2023-03-25T21:12:28;96313.50;;;18.02;59.15
48778;BME280;34578;0.000;0.000;2023-03-25T21:17:29;96304.25;;;18.02;58.53
48778;BME280;34578;0.000;0.000;2023-03-25T21:22:29;96300.88;;;17.97;58.52
48778;BME280;34578;0.000;0.000;2023-03-25T21:27:30;96300.00;;;17.98;58.61
48778;BME280;34578;0.000;0.000;2023-03-25T21:32:32;96311.84;;;17.96;58.56
48778;BME280;34578;0.000;0.000;2023-03-25T21:37:33;96319.47;;;17.98;58.75
48778;BME280;34578;0.000;0.000;2023-03-25T21:42:40;96312.69;;;17.97;58.31
48778;BME280;34578;0.000;0.000;2023-03-25T21:47:42;96332.94;;;17.97;58.61
48778;BME280;34578;0.000;0.000;2023-03-25T21:52:44;96333.78;;;17.96;58.59
48778;BME280;34578;0.000;0.000;2023-03-25T21:57:47;96324.50;;;17.96;58.57
48778;BME280;34578;0.000;0.000;2023-03-25T22:02:48;96304.25;;;17.93;55.88
48778;BME280;34578;0.000;0.000;2023-03-25T22:07:49;96311.84;;;17.95;57.76
48778;BME280;34578;0.000;0.000;2023-03-25T22:12:50;96305.06;;;18.01;58.64
48778;BME280;34578;0.000;0.000;2023-03-25T22:17:50;96296.59;;;18.04;59.52
48778;BME280;34578;0.000;0.000;2023-03-25T22:22:51;96299.16;;;17.99;58.75
48778;BME280;34578;0.000;0.000;2023-03-25T22:27:52;96303.41;;;17.99;59.09
48778;BME280;34578;0.000;0.000;2023-03-25T22:32:53;96293.28;;;17.99;59.13
48778;BME280;34578;0.000;0.000;2023-03-25T22:37:54;96297.47;;;17.97;58.81
48778;BME280;34578;0.000;0.000;2023-03-25T22:42:54;96289.91;;;17.95;58.90
48778;BME280;34578;0.000;0.000;2023-03-25T22:47:55;96288.19;;;17.96;59.02
48778;BME280;34578;0.000;0.000;2023-03-25T22:52:56;96278.94;;;17.95;58.95
48778;BME280;34578;0.000;0.000;2023-03-25T22:57:56;96273.84;;;17.93;58.80
48778;BME280;34578;0.000;0.000;2023-03-25T23:02:56;96278.91;;;17.93;58.83
48778;BME280;34578;0.000;0.000;2023-03-25T23:07:57;96266.28;;;17.92;58.71
48778;BME280;34578;0.000;0.000;2023-03-25T23:12:57;96262.06;;;17.89;58.40
48778;BME280;34578;0.000;0.000;2023-03-25T23:17:57;96257.00;;;17.95;59.40
48778;BME280;34578;0.000;0.000;2023-03-25T23:22:58;96256.97;;;17.97;59.34
48778;BME280;34578;0.000;0.000;2023-03-25T23:27:58;96247.69;;;17.96;58.96
48778;BME280;34578;0.000;0.000;2023-03-25T23:32:58;96235.03;;;17.93;58.64
48778;BME280;34578;0.000;0.000;2023-03-25T23:37:59;96230.84;;;17.89;57.74
48778;BME280;34578;0.000;0.000;2023-03-25T23:42:59;96227.47;;;17.87;56.83
48778;BME280;34578;0.000;0.000;2023-03-25T23:48:00;96235.06;;;17.88;57.16
48778;BME280;34578;0.000;0.000;2023-03-25T23:53:00;96219.91;;;17.84;57.19
48778;BME280;34578;0.000;0.000;2023-03-25T23:58:01;96219.88;;;17.87;56.44
